createdAt,value
2022-08-16T00:01:24.447Z,26.11
2022-08-16T00:03:53.750Z,26.08
2022-08-16T00:06:21.765Z,26.06
2022-08-16T00:08:49.997Z,26.05
2022-08-16T00:11:20.971Z,25.98
2022-08-16T00:13:53.451Z,26.00
2022-08-16T00:17:05.923Z,25.98
2022-08-16T00:19:15.760Z,25.92
2022-08-16T00:21:44.524Z,25.89
2022-08-16T00:24:13.449Z,25.88
2022-08-16T00:26:58.422Z,25.83
2022-08-16T00:29:25.570Z,25.79
2022-08-16T00:32:00.090Z,25.75
2022-08-16T00:34:41.906Z,25.74
2022-08-16T00:37:17.230Z,25.73
2022-08-16T00:39:56.992Z,25.74
2022-08-16T00:42:30.053Z,25.71
2022-08-16T00:45:09.768Z,25.70
2022-08-16T00:47:49.222Z,25.69
2022-08-16T00:50:36.255Z,25.67
2022-08-16T00:53:07.353Z,25.64
2022-08-16T00:55:38.291Z,25.66
2022-08-16T00:58:13.087Z,25.63
2022-08-16T01:00:45.593Z,25.67
2022-08-16T01:03:30.369Z,25.65
2022-08-16T01:05:59.376Z,25.66
2022-08-16T01:08:36.278Z,25.68
2022-08-16T01:11:05.512Z,25.66
2022-08-16T01:13:37.219Z,25.68
2022-08-16T01:16:12.930Z,25.67
2022-08-16T01:18:59.204Z,25.64
2022-08-16T01:21:52.583Z,25.59
2022-08-16T01:24:51.552Z,25.60
2022-08-16T01:27:30.966Z,25.58
2022-08-16T01:30:18.073Z,25.58
2022-08-16T01:33:01.570Z,25.57
2022-08-16T01:35:46.360Z,25.54
2022-08-16T01:38:35.558Z,25.54
2022-08-16T01:41:09.503Z,25.53
2022-08-16T01:43:40.264Z,25.52
2022-08-16T01:46:29.801Z,25.49
2022-08-16T01:49:36.004Z,25.44
2022-08-16T01:52:28.017Z,25.48
2022-08-16T01:55:05.363Z,25.45
2022-08-16T01:57:35.600Z,25.46
2022-08-16T02:00:19.565Z,25.42
2022-08-16T02:02:46.884Z,25.40
2022-08-16T02:05:21.160Z,25.41
2022-08-16T02:07:52.022Z,25.40
2022-08-16T02:10:20.862Z,25.39
2022-08-16T02:12:55.741Z,25.38
2022-08-16T02:15:28.218Z,25.38
2022-08-16T02:18:01.414Z,25.38
2022-08-16T02:20:35.143Z,25.36
2022-08-16T02:23:05.922Z,25.33
2022-08-16T02:25:52.267Z,25.31
2022-08-16T02:28:23.558Z,25.26
2022-08-16T02:30:53.288Z,25.22
2022-08-16T02:33:24.359Z,25.24
2022-08-16T02:36:15.209Z,25.22
2022-08-16T02:39:04.463Z,25.22
2022-08-16T02:41:31.470Z,25.21
2022-08-16T02:44:01.141Z,25.20
2022-08-16T02:46:30.006Z,25.20
2022-08-16T02:49:03.316Z,25.18
2022-08-16T02:51:33.820Z,25.16
2022-08-16T02:54:03.148Z,25.16
2022-08-16T02:56:32.086Z,25.16
2022-08-16T02:58:59.426Z,25.13
2022-08-16T03:01:36.630Z,25.12
2022-08-16T03:04:28.910Z,25.12
2022-08-16T03:06:57.936Z,25.10
2022-08-16T03:09:41.357Z,25.06
2022-08-16T03:12:11.752Z,25.07
2022-08-16T03:14:43.748Z,25.04
2022-08-16T03:17:11.203Z,25.02
2022-08-16T03:19:47.903Z,25.01
2022-08-16T03:22:28.403Z,24.99
2022-08-16T03:25:01.226Z,24.96
2022-08-16T03:27:32.791Z,24.95
2022-08-16T03:30:17.412Z,24.95
2022-08-16T03:32:55.799Z,24.93
2022-08-16T03:35:32.620Z,24.92
2022-08-16T03:38:33.714Z,24.91
2022-08-16T03:40:56.127Z,24.89
2022-08-16T03:43:51.543Z,24.89
2022-08-16T03:46:44.481Z,24.85
2022-08-16T03:49:03.030Z,24.82
2022-08-16T03:51:30.465Z,24.77
2022-08-16T03:54:03.455Z,24.82
2022-08-16T03:56:56.724Z,24.79
2022-08-16T03:59:29.747Z,24.77
2022-08-16T04:02:02.020Z,24.76
2022-08-16T04:04:33.430Z,24.78
2022-08-16T04:07:05.812Z,24.76
2022-08-16T04:09:38.101Z,24.78
2022-08-16T04:12:10.652Z,24.79
2022-08-16T04:14:46.773Z,24.79
2022-08-16T04:17:17.132Z,24.82
2022-08-16T04:19:45.435Z,24.82
2022-08-16T04:22:17.271Z,24.83
2022-08-16T04:24:55.327Z,24.79
2022-08-16T04:27:29.012Z,24.83
2022-08-16T04:30:03.052Z,24.85
2022-08-16T04:32:35.527Z,24.83
2022-08-16T04:35:12.368Z,24.84
2022-08-16T04:37:44.954Z,24.82
2022-08-16T04:40:20.531Z,24.87
2022-08-16T04:42:50.402Z,24.89
2022-08-16T04:45:18.643Z,24.92
2022-08-16T04:48:05.897Z,24.92
2022-08-16T04:50:43.562Z,24.96
2022-08-16T04:53:15.885Z,25.01
2022-08-16T04:55:45.251Z,25.12
2022-08-16T04:58:44.763Z,25.20
2022-08-16T05:01:01.901Z,25.25
2022-08-16T05:03:31.052Z,25.26
2022-08-16T05:05:59.724Z,25.32
2022-08-16T05:08:32.804Z,25.32
2022-08-16T05:11:16.928Z,25.34
2022-08-16T05:13:47.513Z,25.35
2022-08-16T05:16:30.115Z,25.36
2022-08-16T05:19:11.599Z,25.37
2022-08-16T05:21:47.623Z,25.40
2022-08-16T05:24:14.565Z,25.42
2022-08-16T05:26:51.911Z,25.45
2022-08-16T05:29:20.622Z,25.49
2022-08-16T05:32:01.467Z,25.49
2022-08-16T05:34:29.228Z,25.52
2022-08-16T05:36:57.463Z,25.49
2022-08-16T05:39:33.362Z,25.55
2022-08-16T05:42:04.848Z,25.60
2022-08-16T05:44:32.556Z,25.63
2022-08-16T05:47:02.051Z,25.63
2022-08-16T05:49:39.890Z,25.67
2022-08-16T05:52:13.684Z,25.68
2022-08-16T05:54:47.569Z,25.76
2022-08-16T05:57:20.657Z,25.78
2022-08-16T05:59:50.736Z,25.81
2022-08-16T06:02:33.491Z,25.85
2022-08-16T06:05:02.246Z,25.86
2022-08-16T06:07:31.919Z,25.94
2022-08-16T06:10:09.684Z,25.97
2022-08-16T06:12:37.464Z,26.00
2022-08-16T06:15:11.982Z,26.01
2022-08-16T06:17:44.327Z,26.01
2022-08-16T06:20:35.466Z,26.02
2022-08-16T06:23:20.029Z,26.01
2022-08-16T06:25:59.408Z,26.04
2022-08-16T06:28:36.443Z,26.06
2022-08-16T06:31:12.079Z,26.12
2022-08-16T06:33:42.331Z,26.17
2022-08-16T06:36:14.762Z,26.20
2022-08-16T06:38:55.450Z,26.24
2022-08-16T06:41:29.339Z,26.27
2022-08-16T06:44:21.093Z,26.30
2022-08-16T06:46:53.778Z,26.38
2022-08-16T06:49:21.180Z,26.44
2022-08-16T06:51:48.996Z,26.50
2022-08-16T06:54:21.740Z,26.56
2022-08-16T06:56:52.368Z,26.62
2022-08-16T06:59:25.539Z,26.67
2022-08-16T07:01:58.299Z,26.71
2022-08-16T07:04:31.882Z,26.75
2022-08-16T07:07:01.913Z,26.82
2022-08-16T07:09:30.605Z,26.90
2022-08-16T07:12:05.393Z,26.97
2022-08-16T07:14:35.373Z,27.02
2022-08-16T07:17:08.200Z,27.09
2022-08-16T07:20:29.320Z,27.14
2022-08-16T07:22:52.962Z,27.18
2022-08-16T07:25:24.969Z,27.25
2022-08-16T07:27:52.859Z,27.32
2022-08-16T07:30:46.003Z,27.36
2022-08-16T07:33:52.005Z,27.43
2022-08-16T07:36:07.622Z,27.48
2022-08-16T07:38:41.364Z,27.52
2022-08-16T07:41:09.632Z,27.57
2022-08-16T07:43:40.545Z,27.62
2022-08-16T07:46:39.276Z,27.66
2022-08-16T07:49:02.360Z,27.69
2022-08-16T07:51:37.022Z,27.75
2022-08-16T07:54:11.447Z,27.80
2022-08-16T07:56:48.368Z,27.85
2022-08-16T07:59:16.167Z,27.94
2022-08-16T08:01:43.643Z,27.99
2022-08-16T08:04:13.149Z,28.03
2022-08-16T08:06:42.456Z,28.09
2022-08-16T08:09:16.238Z,28.11
2022-08-16T08:12:01.068Z,28.22
2022-08-16T08:14:29.403Z,28.29
2022-08-16T08:16:59.025Z,28.35
2022-08-16T08:19:30.148Z,28.39
2022-08-16T08:22:00.705Z,28.43
2022-08-16T08:24:53.366Z,28.48
2022-08-16T08:27:26.588Z,28.52
2022-08-16T08:30:50.537Z,28.54
2022-08-16T08:32:51.167Z,28.63
2022-08-16T08:35:28.728Z,28.71
2022-08-16T08:37:58.453Z,28.77
2022-08-16T08:40:29.593Z,28.82
2022-08-16T08:43:00.442Z,28.93
2022-08-16T08:45:48.381Z,29.00
2022-08-16T08:48:35.091Z,29.08
2022-08-16T08:51:11.140Z,29.17
2022-08-16T08:53:58.021Z,29.24
2022-08-16T08:56:32.459Z,29.31
2022-08-16T08:59:26.007Z,29.38
2022-08-16T09:01:57.032Z,29.41
2022-08-16T09:04:28.558Z,29.49
2022-08-16T09:06:58.384Z,29.59
2022-08-16T09:09:33.411Z,29.65
2022-08-16T09:12:06.189Z,29.75
2022-08-16T09:14:49.347Z,29.83
2022-08-16T09:17:38.221Z,29.91
2022-08-16T09:20:07.957Z,30.00
2022-08-16T09:22:34.976Z,30.06
2022-08-16T09:25:09.919Z,30.13
2022-08-16T09:27:57.369Z,30.23
2022-08-16T09:30:33.655Z,30.32
2022-08-16T09:33:06.814Z,30.42
2022-08-16T09:35:38.674Z,30.50
2022-08-16T09:38:08.637Z,30.62
2022-08-16T09:40:43.354Z,30.68
2022-08-16T09:43:37.768Z,30.75
2022-08-16T09:46:04.015Z,30.82
2022-08-16T09:48:52.888Z,30.88
2022-08-16T09:51:26.284Z,30.94
2022-08-16T09:53:57.899Z,30.96
2022-08-16T09:56:35.338Z,31.02
2022-08-16T09:59:07.951Z,31.10
2022-08-16T10:01:43.488Z,31.14
2022-08-16T10:04:30.257Z,31.18
2022-08-16T10:09:45.274Z,31.28
2022-08-16T10:12:42.435Z,31.35
2022-08-16T10:15:16.622Z,31.42
2022-08-16T10:18:00.232Z,31.48
2022-08-16T10:20:32.491Z,31.54
2022-08-16T10:23:06.936Z,31.58
2022-08-16T10:27:21.946Z,31.63
2022-08-16T10:28:39.098Z,31.75
2022-08-16T10:31:14.498Z,31.84
2022-08-16T10:33:44.227Z,31.93
2022-08-16T10:36:39.333Z,31.99
2022-08-16T10:39:00.897Z,32.03
2022-08-16T10:41:28.945Z,32.08
2022-08-16T10:43:56.720Z,32.17
2022-08-16T10:46:33.640Z,32.23
2022-08-16T10:49:01.470Z,32.30
2022-08-16T10:51:34.483Z,32.36
2022-08-16T10:54:28.648Z,32.40
2022-08-16T10:56:57.108Z,32.44
2022-08-16T10:59:32.905Z,32.47
2022-08-16T11:02:57.559Z,32.52
2022-08-16T11:05:08.761Z,32.55
2022-08-16T11:07:51.951Z,32.62
2022-08-16T11:16:26.786Z,32.67
2022-08-16T11:19:05.307Z,32.70
2022-08-16T11:22:23.274Z,32.79
2022-08-16T11:24:39.499Z,32.81
2022-08-16T11:27:32.774Z,32.92
2022-08-16T11:29:57.037Z,32.99
2022-08-16T11:32:31.494Z,33.04
2022-08-16T11:35:13.529Z,33.11
2022-08-16T11:40:46.911Z,33.29
2022-08-16T11:43:23.743Z,33.39
2022-08-16T11:45:54.684Z,33.46
2022-08-16T11:48:25.602Z,33.51
2022-08-16T11:50:53.145Z,33.56
2022-08-16T11:53:21.902Z,33.60
2022-08-16T11:55:54.772Z,33.63
2022-08-16T11:58:24.681Z,33.65
2022-08-16T12:00:55.628Z,33.70
2022-08-16T12:03:31.428Z,33.76
2022-08-16T12:06:30.334Z,33.79
2022-08-16T12:09:02.189Z,33.84
2022-08-16T12:11:31.580Z,33.85
2022-08-16T12:14:01.985Z,33.89
2022-08-16T12:16:34.483Z,33.89
2022-08-16T12:19:10.745Z,33.92
2022-08-16T12:21:58.837Z,33.94
2022-08-16T12:24:27.142Z,33.99
2022-08-16T12:26:54.549Z,34.05
2022-08-16T12:29:22.378Z,34.10
2022-08-16T12:32:01.586Z,34.15
2022-08-16T12:34:47.977Z,34.20
2022-08-16T12:37:18.156Z,34.23
2022-08-16T12:39:50.614Z,34.25
2022-08-16T12:42:19.390Z,34.30
2022-08-16T12:44:49.056Z,34.34
2022-08-16T12:47:37.257Z,34.38
2022-08-16T12:50:10.529Z,34.40
2022-08-16T12:52:53.001Z,34.44
2022-08-16T12:55:22.117Z,34.47
2022-08-16T12:57:58.406Z,34.47
2022-08-16T13:00:33.037Z,34.52
2022-08-16T13:03:03.375Z,34.56
2022-08-16T13:08:03.792Z,34.66
2022-08-16T13:10:36.829Z,34.66
2022-08-16T13:13:07.044Z,34.61
2022-08-16T13:15:51.617Z,34.57
2022-08-16T13:18:34.057Z,34.53
2022-08-16T13:21:05.023Z,34.53
2022-08-16T13:23:33.214Z,34.53
2022-08-16T13:26:00.527Z,34.52
2022-08-16T13:28:27.644Z,34.53
2022-08-16T13:30:56.804Z,34.54
2022-08-16T13:33:36.816Z,34.53
2022-08-16T13:36:17.101Z,34.62
2022-08-16T13:38:55.640Z,34.68
2022-08-16T13:41:24.203Z,34.71
2022-08-16T13:43:57.859Z,34.72
2022-08-16T13:46:27.290Z,34.73
2022-08-16T13:48:56.031Z,34.76
2022-08-16T13:51:25.223Z,34.80
2022-08-16T13:54:02.800Z,34.86
2022-08-16T13:56:37.875Z,34.89
2022-08-16T13:59:20.543Z,34.93
2022-08-16T14:01:55.890Z,34.98
2022-08-16T14:04:39.249Z,35.01
2022-08-16T14:07:11.335Z,35.05
2022-08-16T14:09:39.431Z,35.07
2022-08-16T14:12:29.387Z,35.06
2022-08-16T14:14:57.573Z,35.06
2022-08-16T14:17:26.570Z,35.06
2022-08-16T14:19:54.585Z,35.11
2022-08-16T14:22:42.353Z,35.11
2022-08-16T14:25:18.994Z,35.16
2022-08-16T14:27:46.628Z,35.20
2022-08-16T14:30:17.701Z,35.21
2022-08-16T14:32:46.756Z,35.24
2022-08-16T14:35:36.340Z,35.27
2022-08-16T14:38:04.802Z,35.31
2022-08-16T14:40:32.896Z,35.34
2022-08-16T14:43:07.324Z,35.38
2022-08-16T14:45:34.585Z,35.39
2022-08-16T14:48:01.502Z,35.42
2022-08-16T14:50:28.692Z,35.44
2022-08-16T14:53:01.182Z,35.45
2022-08-16T14:55:33.485Z,35.43
2022-08-16T14:58:05.815Z,35.48
2022-08-16T15:00:37.427Z,35.47
2022-08-16T15:03:09.664Z,35.46
2022-08-16T15:05:39.750Z,35.44
2022-08-16T15:08:06.934Z,35.42
2022-08-16T15:10:34.984Z,35.42
2022-08-16T15:13:09.561Z,35.43
2022-08-16T15:15:38.758Z,35.45
2022-08-16T15:18:11.747Z,35.45
2022-08-16T15:20:41.087Z,35.45
2022-08-16T15:23:09.968Z,35.44
2022-08-16T15:25:44.560Z,35.43
2022-08-16T15:28:30.958Z,35.41
2022-08-16T15:31:03.954Z,35.38
2022-08-16T15:33:42.709Z,35.35
2022-08-16T15:36:17.946Z,35.33
2022-08-16T15:39:02.916Z,35.24
2022-08-16T15:41:42.609Z,35.24
2022-08-16T15:44:22.393Z,35.22
2022-08-16T15:46:55.836Z,35.21
2022-08-16T15:49:34.687Z,35.20
2022-08-16T15:52:14.337Z,35.17
2022-08-16T15:54:53.527Z,35.15
2022-08-16T15:57:24.609Z,35.14
2022-08-16T15:59:56.152Z,35.14
2022-08-16T16:02:38.790Z,35.10
2022-08-16T16:05:11.188Z,35.13
2022-08-16T16:07:56.430Z,35.15
2022-08-16T16:10:29.833Z,35.13
2022-08-16T16:13:00.503Z,35.15
2022-08-16T16:15:31.646Z,35.16
2022-08-16T16:17:59.006Z,35.16
2022-08-16T16:20:35.548Z,35.15
2022-08-16T16:23:10.352Z,35.13
2022-08-16T16:25:44.022Z,35.14
2022-08-16T16:28:45.924Z,35.12
2022-08-16T16:31:12.484Z,35.10
2022-08-16T16:33:44.384Z,35.10
2022-08-16T16:36:17.212Z,35.09
2022-08-16T16:38:48.817Z,35.09
2022-08-16T16:41:23.336Z,35.09
2022-08-16T16:43:53.453Z,35.13
2022-08-16T16:46:42.396Z,35.17
2022-08-16T16:49:14.113Z,35.22
2022-08-16T16:51:44.666Z,35.32
2022-08-16T16:54:13.308Z,35.41
2022-08-16T16:56:49.759Z,35.51
2022-08-16T16:59:19.927Z,35.57
2022-08-16T17:02:00.495Z,35.68
2022-08-16T17:04:36.809Z,35.79
2022-08-16T17:07:03.886Z,35.92
2022-08-16T17:09:40.250Z,36.04
2022-08-16T17:12:09.062Z,36.17
2022-08-16T17:14:38.460Z,36.28
2022-08-16T17:17:11.562Z,36.40
2022-08-16T17:19:42.578Z,36.52
2022-08-16T17:22:16.086Z,36.61
2022-08-16T17:24:52.667Z,36.65
2022-08-16T17:27:33.821Z,36.58
2022-08-16T17:30:14.822Z,36.45
2022-08-16T17:32:50.096Z,36.33
2022-08-16T17:35:23.040Z,36.21
2022-08-16T17:37:51.720Z,36.10
2022-08-16T17:40:47.511Z,35.95
2022-08-16T17:43:17.190Z,35.82
2022-08-16T17:45:44.217Z,35.69
2022-08-16T17:48:11.772Z,35.60
2022-08-16T17:50:40.274Z,35.47
2022-08-16T17:53:07.771Z,35.35
2022-08-16T17:55:38.612Z,35.22
2022-08-16T17:58:10.539Z,35.11
2022-08-16T18:00:52.228Z,34.99
2022-08-16T18:04:02.810Z,34.84
2022-08-16T18:06:25.464Z,34.63
2022-08-16T18:09:01.765Z,34.42
2022-08-16T18:11:30.137Z,34.25
2022-08-16T18:14:00.484Z,34.14
2022-08-16T18:16:27.658Z,34.07
2022-08-16T18:18:54.560Z,33.99
2022-08-16T18:21:40.523Z,33.92
2022-08-16T18:24:08.744Z,33.82
2022-08-16T18:26:36.111Z,33.77
2022-08-16T18:29:03.276Z,33.70
2022-08-16T18:31:30.335Z,33.62
2022-08-16T18:33:57.225Z,33.54
2022-08-16T18:36:25.536Z,33.47
2022-08-16T18:38:54.015Z,33.40
2022-08-16T18:41:24.922Z,33.33
2022-08-16T18:44:22.289Z,33.24
2022-08-16T18:46:43.712Z,33.13
2022-08-16T18:49:13.247Z,33.07
2022-08-16T18:51:45.225Z,32.98
2022-08-16T18:54:17.843Z,32.88
2022-08-16T18:56:56.372Z,32.81
2022-08-16T18:59:27.758Z,32.72
2022-08-16T19:02:00.215Z,32.66
2022-08-16T19:04:50.348Z,32.60
2022-08-16T19:07:23.190Z,32.52
2022-08-16T19:10:01.777Z,32.47
2022-08-16T19:12:47.154Z,32.44
2022-08-16T19:15:22.827Z,32.37
2022-08-16T19:17:49.943Z,32.33
2022-08-16T19:20:20.606Z,32.26
2022-08-16T19:23:05.453Z,32.22
2022-08-16T19:25:48.697Z,32.15
2022-08-16T19:28:50.994Z,32.10
2022-08-16T19:31:31.096Z,32.05
2022-08-16T19:33:58.325Z,32.02
2022-08-16T19:36:37.902Z,31.95
2022-08-16T19:39:13.685Z,31.91
2022-08-16T19:41:53.341Z,31.72
2022-08-16T19:44:22.320Z,31.63
2022-08-16T19:46:49.570Z,31.57
2022-08-16T19:49:17.064Z,31.51
2022-08-16T19:51:48.285Z,31.48
2022-08-16T19:54:15.696Z,31.49
2022-08-16T19:56:42.619Z,31.46
2022-08-16T19:59:19.357Z,31.35
2022-08-16T20:01:50.030Z,31.23
2022-08-16T20:04:17.046Z,31.16
2022-08-16T20:06:43.961Z,31.13
2022-08-16T20:09:12.624Z,31.05
2022-08-16T20:11:46.704Z,30.97
2022-08-16T20:14:23.960Z,30.90
2022-08-16T20:16:55.154Z,30.83
2022-08-16T20:19:22.068Z,30.81
2022-08-16T20:21:49.743Z,30.81
2022-08-16T20:24:33.638Z,30.77
2022-08-16T20:27:02.815Z,30.72
2022-08-16T20:29:29.723Z,30.67
2022-08-16T20:31:56.830Z,30.61
2022-08-16T20:34:23.786Z,30.51
2022-08-16T20:36:50.731Z,30.27
2022-08-16T20:39:17.690Z,30.01
2022-08-16T20:41:45.163Z,29.82
2022-08-16T20:44:12.699Z,29.63
2022-08-16T20:46:39.986Z,29.48
2022-08-16T20:49:09.068Z,29.42
2022-08-16T20:51:46.509Z,29.40
2022-08-16T20:54:14.806Z,29.41
2022-08-16T20:56:41.838Z,29.37
2022-08-16T20:59:08.737Z,29.34
2022-08-16T21:01:49.658Z,29.36
2022-08-16T21:04:25.225Z,29.36
2022-08-16T21:06:53.713Z,29.37
2022-08-16T21:09:28.745Z,29.35
2022-08-16T21:11:57.357Z,29.34
2022-08-16T21:14:24.509Z,29.31
2022-08-16T21:16:51.544Z,29.29
2022-08-16T21:19:19.100Z,29.28
2022-08-16T21:21:46.468Z,29.26
2022-08-16T21:24:14.057Z,29.24
2022-08-16T21:26:40.992Z,29.19
2022-08-16T21:29:17.935Z,29.15
2022-08-16T21:31:44.901Z,29.11
2022-08-16T21:34:11.837Z,29.06
2022-08-16T21:36:38.793Z,29.04
2022-08-16T21:39:06.399Z,29.01
2022-08-16T21:41:35.226Z,28.99
2022-08-16T21:44:02.142Z,28.92
2022-08-16T21:46:29.124Z,28.90
2022-08-16T21:48:56.043Z,28.86
2022-08-16T21:51:22.947Z,28.84
2022-08-16T21:53:49.922Z,28.82
2022-08-16T21:56:17.590Z,28.78
2022-08-16T21:58:53.297Z,28.75
2022-08-16T22:01:23.104Z,28.74
2022-08-16T22:04:35.753Z,28.71
2022-08-16T22:06:39.253Z,28.67
2022-08-16T22:09:08.224Z,28.63
2022-08-16T22:11:35.521Z,28.61
2022-08-16T22:14:04.251Z,28.59
2022-08-16T22:16:35.163Z,28.56
2022-08-16T22:19:04.449Z,28.54
2022-08-16T22:21:32.439Z,28.52
2022-08-16T22:23:59.564Z,28.48
2022-08-16T22:26:32.218Z,28.42
2022-08-16T22:29:02.184Z,28.38
2022-08-16T22:31:29.316Z,28.38
2022-08-16T22:33:56.890Z,28.33
2022-08-16T22:36:28.462Z,28.32
2022-08-16T22:39:03.439Z,28.27
2022-08-16T22:41:32.645Z,28.24
2022-08-16T22:44:02.043Z,28.20
2022-08-16T22:46:30.209Z,28.17
2022-08-16T22:48:57.530Z,28.13
2022-08-16T22:51:27.285Z,28.09
2022-08-16T22:53:55.509Z,28.06
2022-08-16T22:56:23.892Z,27.99
2022-08-16T22:58:50.925Z,27.97
2022-08-16T23:01:22.803Z,27.94
2022-08-16T23:03:50.398Z,27.91
2022-08-16T23:06:17.824Z,27.88
2022-08-16T23:08:44.947Z,27.85
2022-08-16T23:11:22.507Z,27.83
2022-08-16T23:13:56.181Z,27.80
2022-08-16T23:16:33.239Z,27.77
2022-08-16T23:19:12.363Z,27.73
2022-08-16T23:21:43.759Z,27.71
2022-08-16T23:24:11.885Z,27.69
2022-08-16T23:26:47.934Z,27.67
2022-08-16T23:29:23.996Z,27.64
2022-08-16T23:32:08.369Z,27.61
2022-08-16T23:34:35.308Z,27.56
2022-08-16T23:37:02.227Z,27.54
2022-08-16T23:39:29.444Z,27.50
2022-08-16T23:41:56.422Z,27.47
2022-08-16T23:44:42.223Z,27.45
2022-08-16T23:47:10.827Z,27.40
2022-08-16T23:49:58.038Z,27.37
2022-08-16T23:52:53.944Z,27.34
2022-08-16T23:55:11.737Z,27.29
2022-08-16T23:57:38.666Z,27.27
